createdAt,value
2019-03-01T00:01:18.959Z,49.06
2019-03-01T00:04:10.170Z,49.48
2019-03-01T00:06:44.592Z,48.18
2019-03-01T00:09:49.119Z,46.87
2019-03-01T00:12:54.278Z,47.00
2019-03-01T00:16:02.834Z,47.34
2019-03-01T00:19:25.838Z,49.71
2019-03-01T00:22:24.629Z,51.12
2019-03-01T00:25:15.085Z,49.85
2019-03-01T00:28:09.925Z,51.59
2019-03-01T00:31:20.792Z,48.85
2019-03-01T00:34:21.734Z,49.84
2019-03-01T00:37:34.253Z,50.23
2019-03-01T00:40:57.001Z,47.58
2019-03-01T00:44:29.894Z,46.74
2019-03-01T00:47:00.622Z,48.26
2019-03-01T00:49:33.130Z,47.57
2019-03-01T00:52:03.830Z,47.36
2019-03-01T00:54:34.371Z,48.58
2019-03-01T00:57:05.102Z,52.04
2019-03-01T00:59:35.419Z,52.39
2019-03-01T01:02:06.059Z,51.62
2019-03-01T01:04:36.760Z,53.69
2019-03-01T01:07:07.299Z,52.40
2019-03-01T01:09:37.693Z,51.31
2019-03-01T01:12:08.158Z,52.84
2019-03-01T01:14:38.802Z,51.58
2019-03-01T01:17:09.302Z,51.57
2019-03-01T01:19:40.094Z,54.37
2019-03-01T01:22:11.181Z,52.50
2019-03-01T01:24:41.583Z,54.19
2019-03-01T01:27:12.122Z,51.69
2019-03-01T01:29:42.565Z,52.78
2019-03-01T01:32:13.017Z,53.68
2019-03-01T01:34:43.448Z,53.60
2019-03-01T01:37:13.855Z,52.14
2019-03-01T01:39:44.161Z,51.25
2019-03-01T01:42:14.755Z,51.01
2019-03-01T01:44:45.235Z,50.39
2019-03-01T01:47:15.778Z,49.12
2019-03-01T01:49:46.274Z,48.69
2019-03-01T01:52:16.718Z,51.13
2019-03-01T01:54:47.070Z,49.12
2019-03-01T01:57:17.457Z,48.89
2019-03-01T01:59:48.097Z,49.67
2019-03-01T02:02:18.633Z,48.54
2019-03-01T02:04:48.940Z,48.58
2019-03-01T02:07:19.347Z,48.47
2019-03-01T02:09:49.885Z,50.61
2019-03-01T02:12:20.459Z,50.57
2019-03-01T02:14:51.049Z,50.27
2019-03-01T02:17:21.739Z,49.80
2019-03-01T02:19:52.093Z,50.65
2019-03-01T02:22:22.754Z,50.84
2019-03-01T02:24:53.271Z,48.90
2019-03-01T02:27:33.115Z,59.94
2019-03-01T02:30:04.492Z,49.94
2019-03-01T02:32:37.991Z,58.89
2019-03-01T02:35:10.411Z,50.59
2019-03-01T02:37:40.845Z,50.76
2019-03-01T02:40:12.285Z,58.20
2019-03-01T02:42:42.756Z,52.52
2019-03-01T02:45:15.483Z,58.20
2019-03-01T02:47:45.809Z,55.17
2019-03-01T02:50:18.293Z,62.51
2019-03-01T02:52:48.834Z,56.35
2019-03-01T02:55:19.930Z,59.53
2019-03-01T02:57:50.479Z,54.98
2019-03-01T03:00:25.732Z,55.83
2019-03-01T03:02:56.368Z,54.88
2019-03-01T03:05:26.986Z,56.47
2019-03-01T03:07:59.578Z,57.41
2019-03-01T03:10:30.254Z,54.83
2019-03-01T03:13:03.231Z,54.69
2019-03-01T03:15:36.334Z,53.07
2019-03-01T03:18:07.456Z,55.26
2019-03-01T03:20:37.897Z,54.29
2019-03-01T03:23:08.459Z,54.30
2019-03-01T03:28:43.316Z,51.53
2019-03-01T03:31:13.940Z,53.49
2019-03-01T03:33:44.403Z,52.16
2019-03-01T03:36:14.826Z,54.19
2019-03-01T03:38:45.134Z,53.99
2019-03-01T03:41:15.681Z,53.48
2019-03-01T03:43:46.138Z,54.15
2019-03-01T03:46:16.573Z,54.39
2019-03-01T03:48:46.935Z,54.42
2019-03-01T03:51:17.292Z,55.09
2019-03-01T03:53:47.748Z,54.00
2019-03-01T03:56:18.122Z,52.95
2019-03-01T03:58:48.473Z,53.58
2019-03-01T04:07:22.603Z,52.97
2019-03-01T04:09:53.172Z,52.97
2019-03-01T04:12:23.674Z,52.68
2019-03-01T04:14:54.316Z,53.00
2019-03-01T04:17:24.694Z,53.83
2019-03-01T04:19:55.148Z,53.20
2019-03-01T04:22:25.574Z,52.51
2019-03-01T04:24:55.881Z,54.50
2019-03-01T04:27:26.362Z,54.13
2019-03-01T04:29:56.663Z,53.57
2019-03-01T04:32:27.166Z,54.71
2019-03-01T04:34:57.826Z,53.26
2019-03-01T04:37:28.227Z,52.85
2019-03-01T04:39:58.694Z,53.41
2019-03-01T04:42:29.111Z,52.93
2019-03-01T04:44:59.414Z,53.02
2019-03-01T04:47:29.739Z,52.99
2019-03-01T04:50:00.300Z,53.18
2019-03-01T04:52:36.142Z,52.81
2019-03-01T04:55:17.347Z,52.71
2019-03-01T04:57:48.008Z,52.70
2019-03-01T05:00:20.055Z,53.14
2019-03-01T05:02:50.503Z,51.31
2019-03-01T05:05:21.478Z,50.82
2019-03-01T05:07:52.493Z,52.64
2019-03-01T05:10:22.992Z,51.89
2019-03-01T05:12:53.435Z,52.82
2019-03-01T05:15:24.600Z,54.45
2019-03-01T05:17:55.187Z,55.39
2019-03-01T05:20:25.678Z,56.16
2019-03-01T05:22:56.109Z,56.21
2019-03-01T05:25:26.006Z,54.73
2019-03-01T05:27:56.107Z,54.61
2019-03-01T05:30:26.287Z,54.75
2019-03-01T05:32:56.483Z,55.04
2019-03-01T05:35:26.484Z,54.50
2019-03-01T05:37:56.486Z,55.75
2019-03-01T05:40:26.803Z,57.54
2019-03-01T05:42:57.026Z,55.94
2019-03-01T05:45:27.453Z,58.18
2019-03-01T05:47:57.447Z,56.34
2019-03-01T05:50:27.668Z,56.21
2019-03-01T05:52:57.859Z,54.15
2019-03-01T05:55:27.873Z,53.23
2019-03-01T05:58:43.668Z,53.00
2019-03-01T06:01:24.575Z,55.62
2019-03-01T06:04:10.102Z,54.58
2019-03-01T06:07:21.073Z,55.18
2019-03-01T06:10:18.190Z,54.16
2019-03-01T06:13:20.738Z,53.98
2019-03-01T06:16:22.609Z,52.42
2019-03-01T06:19:38.845Z,55.96
2019-03-01T06:23:13.569Z,55.61
2019-03-01T06:25:59.298Z,58.43
2019-03-01T06:29:25.401Z,54.50
2019-03-01T06:32:35.257Z,52.91
2019-03-01T06:35:45.024Z,53.42
2019-03-01T06:39:23.749Z,54.61
2019-03-01T06:42:09.966Z,53.34
2019-03-01T06:45:11.635Z,54.14
2019-03-01T06:47:49.343Z,53.77
2019-03-01T06:50:38.300Z,52.52
2019-03-01T06:53:08.492Z,53.04
2019-03-01T06:55:43.867Z,52.25
2019-03-01T06:58:17.230Z,53.65
2019-03-01T07:00:50.641Z,53.67
2019-03-01T07:03:21.033Z,52.32
2019-03-01T07:05:50.948Z,50.40
2019-03-01T07:08:21.275Z,50.36
2019-03-01T07:10:51.614Z,49.61
2019-03-01T07:13:21.802Z,49.35
2019-03-01T07:15:52.017Z,47.51
2019-03-01T07:18:22.134Z,48.11
2019-03-01T07:20:52.341Z,46.98
2019-03-01T07:23:22.563Z,46.11
2019-03-01T07:25:54.689Z,45.55
2019-03-01T07:28:24.210Z,44.97
2019-03-01T07:30:54.415Z,43.82
2019-03-01T07:33:24.509Z,44.56
2019-03-01T07:35:54.722Z,43.79
2019-03-01T07:38:24.894Z,42.77
2019-03-01T07:40:54.874Z,41.13
2019-03-01T07:43:24.843Z,39.39
2019-03-01T07:45:55.035Z,39.91
2019-03-01T07:48:25.281Z,39.52
2019-03-01T07:50:56.048Z,39.77
2019-03-01T07:53:26.395Z,38.18
2019-03-01T07:55:56.604Z,38.50
2019-03-01T07:58:26.919Z,38.39
2019-03-01T08:00:56.898Z,36.87
2019-03-01T08:03:26.912Z,37.18
2019-03-01T08:05:57.119Z,35.92
2019-03-01T08:08:27.816Z,35.94
2019-03-01T08:11:00.052Z,35.44
2019-03-01T08:13:29.866Z,35.33
2019-03-01T08:15:59.985Z,34.50
2019-03-01T08:18:29.992Z,34.84
2019-03-01T08:21:00.189Z,34.94
2019-03-01T08:23:31.753Z,35.02
2019-03-01T08:26:03.437Z,34.37
2019-03-01T08:28:33.714Z,33.53
2019-03-01T08:31:04.615Z,35.09
2019-03-01T08:33:35.131Z,35.83
2019-03-01T08:36:05.840Z,34.36
2019-03-01T08:38:37.048Z,33.73
2019-03-01T08:41:07.220Z,34.25
2019-03-01T08:43:37.436Z,34.21
2019-03-01T08:46:09.614Z,32.89
2019-03-01T08:48:39.206Z,34.99
2019-03-01T08:51:10.516Z,31.84
2019-03-01T08:53:40.721Z,32.71
2019-03-01T08:56:14.357Z,31.80
2019-03-01T08:58:42.988Z,30.49
2019-03-01T09:01:14.204Z,31.48
2019-03-01T09:03:54.894Z,31.90
2019-03-01T09:06:24.945Z,30.36
2019-03-01T09:08:55.079Z,29.79
2019-03-01T09:11:25.389Z,29.94
2019-03-01T09:13:55.596Z,28.09
2019-03-01T09:16:25.694Z,28.46
2019-03-01T09:18:55.794Z,28.73
2019-03-01T09:21:25.998Z,28.99
2019-03-01T09:23:56.196Z,29.05
2019-03-01T09:26:26.533Z,29.26
2019-03-01T09:28:56.630Z,29.46
2019-03-01T09:31:26.819Z,27.92
2019-03-01T09:33:57.424Z,27.98
2019-03-01T09:36:40.617Z,28.23
2019-03-01T09:39:14.521Z,28.04
2019-03-01T09:41:43.149Z,27.39
2019-03-01T09:44:13.070Z,27.05
2019-03-01T09:46:43.276Z,26.76
2019-03-01T09:49:13.470Z,22.72
2019-03-01T09:51:47.440Z,24.39
2019-03-01T09:54:15.192Z,24.14
2019-03-01T09:56:45.406Z,22.71
2019-03-01T09:59:15.641Z,24.77
2019-03-01T10:01:45.746Z,24.02
2019-03-01T10:04:15.805Z,23.79
2019-03-01T10:06:46.030Z,24.34
2019-03-01T10:09:16.414Z,22.86
2019-03-01T10:11:46.546Z,22.87
2019-03-01T10:14:17.167Z,23.82
2019-03-01T10:16:47.181Z,23.56
2019-03-01T10:19:17.071Z,22.37
2019-03-01T10:21:47.266Z,21.12
2019-03-01T10:24:17.452Z,22.59
2019-03-01T10:26:47.583Z,22.05
2019-03-01T10:29:19.556Z,22.04
2019-03-01T10:31:50.227Z,20.57
2019-03-01T10:34:20.552Z,20.93
2019-03-01T10:36:51.077Z,20.54
2019-03-01T10:39:21.771Z,20.77
2019-03-01T10:41:52.184Z,20.31
2019-03-01T10:44:22.565Z,18.98
2019-03-01T10:46:53.090Z,19.19
2019-03-01T10:49:23.459Z,19.74
2019-03-01T10:51:54.073Z,19.51
2019-03-01T10:54:24.486Z,20.36
2019-03-01T10:56:54.911Z,20.15
2019-03-01T10:59:25.237Z,19.78
2019-03-01T11:01:55.655Z,18.77
2019-03-01T11:04:25.981Z,19.10
2019-03-01T11:06:57.909Z,18.81
2019-03-01T11:09:28.933Z,18.16
2019-03-01T11:11:59.123Z,18.66
2019-03-01T11:14:29.469Z,17.77
2019-03-01T11:16:59.801Z,18.10
2019-03-01T11:19:29.983Z,17.59
2019-03-01T11:22:00.484Z,17.37
2019-03-01T11:24:30.925Z,17.13
2019-03-01T11:27:01.558Z,16.74
2019-03-01T11:29:32.275Z,16.77
2019-03-01T11:32:02.948Z,15.48
2019-03-01T11:34:33.448Z,15.71
2019-03-01T11:37:03.766Z,14.37
2019-03-01T11:39:34.226Z,15.38
2019-03-01T11:42:04.826Z,14.55
2019-03-01T11:44:35.246Z,14.57
2019-03-01T11:47:05.761Z,14.62
2019-03-01T11:49:36.140Z,14.09
2019-03-01T11:52:06.613Z,13.69
2019-03-01T11:54:37.043Z,14.01
2019-03-01T11:57:07.498Z,13.69
2019-03-01T11:59:37.822Z,13.92
2019-03-01T12:02:08.454Z,12.73
2019-03-01T12:04:38.802Z,12.72
2019-03-01T12:07:08.873Z,13.12
2019-03-01T12:09:40.047Z,13.27
2019-03-01T12:12:10.685Z,12.64
2019-03-01T12:14:41.010Z,12.41
2019-03-01T12:17:11.517Z,12.14
2019-03-01T12:19:41.933Z,12.01
2019-03-01T12:22:19.553Z,12.73
2019-03-01T12:24:50.249Z,12.37
2019-03-01T12:27:20.798Z,11.96
2019-03-01T12:29:51.467Z,12.31
2019-03-01T12:32:22.030Z,11.27
2019-03-01T12:34:52.299Z,12.03
2019-03-01T12:37:22.747Z,11.08
2019-03-01T12:39:53.122Z,10.79
2019-03-01T12:42:23.014Z,11.09
2019-03-01T12:44:53.046Z,10.79
2019-03-01T12:47:23.587Z,12.00
2019-03-01T12:49:54.240Z,13.33
2019-03-01T12:52:24.463Z,12.72
2019-03-01T12:54:54.960Z,13.54
2019-03-01T12:57:25.597Z,13.52
2019-03-01T12:59:56.022Z,14.73
2019-03-01T13:02:26.266Z,15.51
2019-03-01T13:04:56.980Z,15.09
2019-03-01T13:07:27.323Z,15.83
2019-03-01T13:09:58.896Z,15.58
2019-03-01T13:12:29.407Z,15.93
2019-03-01T13:14:59.605Z,15.69
2019-03-01T13:17:29.861Z,15.76
2019-03-01T13:20:01.188Z,16.13
2019-03-01T13:22:32.742Z,16.21
2019-03-01T13:25:02.950Z,16.26
2019-03-01T13:27:32.948Z,16.29
2019-03-01T13:30:03.023Z,15.34
2019-03-01T13:32:33.192Z,15.42
2019-03-01T13:35:03.616Z,16.71
2019-03-01T13:37:33.796Z,16.64
2019-03-01T13:40:03.991Z,15.46
2019-03-01T13:42:34.004Z,15.69
2019-03-01T13:45:04.277Z,15.49
2019-03-01T13:47:34.507Z,15.95
2019-03-01T13:50:06.698Z,15.92
2019-03-01T13:52:36.429Z,16.06
2019-03-01T13:55:06.955Z,15.80
2019-03-01T13:57:37.376Z,16.70
2019-03-01T14:00:08.656Z,16.18
2019-03-01T14:02:38.844Z,16.98
2019-03-01T14:05:13.237Z,17.25
2019-03-01T14:07:42.379Z,17.19
2019-03-01T14:10:14.653Z,17.67
2019-03-01T14:12:45.134Z,16.69
2019-03-01T14:15:16.743Z,16.30
2019-03-01T14:17:47.461Z,16.91
2019-03-01T14:20:21.122Z,16.34
2019-03-01T14:22:51.333Z,16.46
2019-03-01T14:25:21.704Z,17.12
2019-03-01T14:27:52.946Z,16.48
2019-03-01T14:30:25.365Z,16.72
2019-03-01T14:32:57.685Z,16.99
2019-03-01T14:35:28.285Z,17.30
2019-03-01T14:37:58.827Z,18.24
2019-03-01T14:40:29.253Z,19.16
2019-03-01T14:42:59.754Z,20.47
2019-03-01T14:45:30.244Z,19.76
2019-03-01T14:48:00.620Z,19.88
2019-03-01T14:50:33.852Z,19.28
2019-03-01T14:53:03.415Z,19.98
2019-03-01T14:55:36.743Z,20.07
2019-03-01T14:58:32.376Z,19.83
2019-03-01T15:01:26.794Z,20.40
2019-03-01T15:03:57.656Z,20.98
2019-03-01T15:06:28.005Z,21.37
2019-03-01T15:08:58.388Z,21.67
2019-03-01T15:11:28.915Z,22.01
2019-03-01T15:13:59.642Z,22.62
2019-03-01T15:16:29.928Z,22.54
2019-03-01T15:19:00.178Z,22.63
2019-03-01T15:21:30.336Z,22.49
2019-03-01T15:24:01.480Z,22.17
2019-03-01T15:26:32.917Z,22.82
2019-03-01T15:29:03.119Z,22.93
2019-03-01T15:31:33.271Z,23.49
2019-03-01T15:34:03.496Z,23.54
2019-03-01T15:36:33.684Z,24.23
2019-03-01T15:39:05.381Z,23.85
2019-03-01T15:41:35.598Z,23.77
2019-03-01T15:44:05.748Z,23.81
2019-03-01T15:46:35.768Z,23.68
2019-03-01T15:49:06.016Z,23.98
2019-03-01T15:51:38.209Z,24.23
2019-03-01T15:54:08.041Z,24.75
2019-03-01T15:56:39.554Z,24.97
2019-03-01T15:59:10.449Z,27.00
2019-03-01T16:01:43.706Z,25.87
2019-03-01T16:04:12.486Z,24.14
2019-03-01T16:06:42.500Z,28.63
2019-03-01T16:09:21.730Z,24.61
2019-03-01T16:11:53.211Z,24.69
2019-03-01T16:14:24.157Z,24.59
2019-03-01T16:16:55.406Z,25.35
2019-03-01T16:19:25.478Z,24.95
2019-03-01T16:21:55.500Z,25.47
2019-03-01T16:24:25.712Z,27.09
2019-03-01T16:26:55.910Z,26.04
2019-03-01T16:29:26.023Z,26.33
2019-03-01T16:31:56.043Z,26.90
2019-03-01T16:34:26.326Z,27.15
2019-03-01T16:36:58.828Z,27.19
2019-03-01T16:39:28.935Z,27.12
2019-03-01T16:41:59.058Z,27.23
2019-03-01T16:44:29.253Z,27.67
2019-03-01T16:46:59.438Z,27.75
2019-03-01T16:49:29.359Z,27.72
2019-03-01T16:51:59.471Z,27.48
2019-03-01T16:54:30.175Z,27.60
2019-03-01T16:57:00.212Z,27.66
2019-03-01T16:59:30.565Z,27.71
2019-03-01T17:02:06.179Z,28.02
2019-03-01T17:04:32.495Z,27.97
2019-03-01T17:07:04.437Z,28.22
2019-03-01T17:09:34.420Z,30.49
2019-03-01T17:12:04.609Z,29.51
2019-03-01T17:14:38.441Z,28.98
2019-03-01T17:17:07.165Z,29.10
2019-03-01T17:19:37.401Z,30.00
2019-03-01T17:22:07.730Z,29.19
2019-03-01T17:24:37.735Z,29.53
2019-03-01T17:27:07.800Z,29.97
2019-03-01T17:29:39.040Z,29.83
2019-03-01T17:32:09.899Z,29.70
2019-03-01T17:34:39.916Z,29.92
2019-03-01T17:37:10.133Z,30.45
2019-03-01T17:39:40.172Z,30.49
2019-03-01T17:42:10.125Z,29.61
2019-03-01T17:44:41.408Z,30.70
2019-03-01T17:47:12.268Z,29.89
2019-03-01T17:49:42.303Z,30.40
2019-03-01T17:52:13.721Z,33.08
2019-03-01T17:54:44.011Z,36.68
2019-03-01T17:57:14.206Z,32.21
2019-03-01T17:59:44.697Z,32.50
2019-03-01T18:02:15.861Z,35.36
2019-03-01T18:04:46.152Z,35.87
2019-03-01T18:07:16.342Z,34.45
2019-03-01T18:09:46.277Z,33.38
2019-03-01T18:12:17.497Z,36.04
2019-03-01T18:14:48.451Z,36.52
2019-03-01T18:17:18.473Z,36.04
2019-03-01T18:19:48.674Z,35.37
2019-03-01T18:22:18.881Z,34.45
2019-03-01T18:24:49.964Z,34.94
2019-03-01T18:27:20.692Z,35.55
2019-03-01T18:29:50.899Z,34.85
2019-03-01T18:32:21.094Z,33.64
2019-03-01T18:34:50.984Z,33.32
2019-03-01T18:37:20.903Z,33.07
2019-03-01T18:39:51.172Z,32.55
2019-03-01T18:42:21.379Z,33.60
2019-03-01T18:44:51.368Z,33.99
2019-03-01T18:47:21.295Z,35.22
2019-03-01T18:49:55.202Z,34.99
2019-03-01T18:52:23.454Z,35.51
2019-03-01T18:54:53.403Z,36.06
2019-03-01T18:57:23.620Z,35.42
2019-03-01T18:59:56.438Z,35.88
2019-03-01T19:02:27.643Z,34.57
2019-03-01T19:04:57.078Z,34.22
2019-03-01T19:07:28.435Z,35.04
2019-03-01T19:09:58.688Z,36.11
2019-03-01T19:12:28.724Z,35.35
2019-03-01T19:14:59.342Z,35.96
2019-03-01T19:17:29.659Z,36.82
2019-03-01T19:20:02.068Z,36.59
2019-03-01T19:22:31.326Z,36.75
2019-03-01T19:25:01.527Z,36.72
2019-03-01T19:27:31.719Z,37.06
2019-03-01T19:30:01.631Z,37.19
2019-03-01T19:32:31.655Z,35.65
2019-03-01T19:35:01.852Z,36.90
2019-03-01T19:37:32.066Z,37.26
2019-03-01T19:40:01.997Z,35.78
2019-03-01T19:42:33.135Z,36.33
2019-03-01T19:45:04.929Z,36.21
2019-03-01T19:47:35.847Z,37.17
2019-03-01T19:50:06.455Z,37.00
2019-03-01T19:52:36.379Z,36.85
2019-03-01T19:55:08.043Z,37.08
2019-03-01T19:57:39.172Z,36.83
2019-03-01T20:00:12.446Z,36.79
2019-03-01T20:02:42.561Z,37.77
2019-03-01T20:05:15.440Z,37.57
2019-03-01T20:07:45.784Z,39.47
2019-03-01T20:10:16.931Z,39.11
2019-03-01T20:12:47.080Z,38.35
2019-03-01T20:15:20.656Z,37.71
2019-03-01T20:17:50.941Z,38.05
2019-03-01T20:20:21.837Z,38.29
2019-03-01T20:22:54.092Z,37.58
2019-03-01T20:25:23.865Z,37.48
2019-03-01T20:27:53.900Z,38.46
2019-03-01T20:30:28.723Z,37.81
2019-03-01T20:32:56.790Z,38.86
2019-03-01T20:35:26.968Z,39.04
2019-03-01T20:38:00.278Z,40.71
2019-03-01T20:40:29.490Z,40.78
2019-03-01T20:43:04.693Z,40.32
2019-03-01T20:45:31.604Z,39.75
2019-03-01T20:48:01.631Z,38.86
2019-03-01T20:50:31.902Z,39.85
2019-03-01T20:53:02.093Z,39.92
2019-03-01T20:55:33.243Z,40.13
2019-03-01T20:58:04.350Z,41.28
2019-03-01T21:00:34.490Z,41.25
2019-03-01T21:03:04.493Z,40.50
2019-03-01T21:05:34.724Z,39.95
2019-03-01T21:08:04.921Z,39.90
2019-03-01T21:10:35.009Z,39.97
2019-03-01T21:13:05.046Z,39.49
2019-03-01T21:15:37.674Z,40.32
2019-03-01T21:18:07.685Z,42.17
2019-03-01T21:20:37.647Z,41.59
2019-03-01T21:23:07.814Z,41.10
2019-03-01T21:25:39.747Z,40.94
2019-03-01T21:28:10.013Z,41.17
2019-03-01T21:30:40.013Z,40.35
2019-03-01T21:33:09.914Z,42.05
2019-03-01T21:35:40.100Z,40.96
2019-03-01T21:38:13.941Z,40.70
2019-03-01T21:40:43.138Z,40.71
2019-03-01T21:43:13.331Z,40.54
2019-03-01T21:45:43.365Z,40.64
2019-03-01T21:48:13.396Z,40.63
2019-03-01T21:50:43.642Z,40.81
2019-03-01T21:53:13.891Z,41.09
2019-03-01T21:55:43.904Z,40.93
2019-03-01T21:58:13.793Z,41.36
2019-03-01T22:00:43.998Z,41.50
2019-03-01T22:03:14.597Z,41.35
2019-03-01T22:05:45.400Z,41.39
2019-03-01T22:08:16.109Z,41.66
2019-03-01T22:10:46.319Z,41.75
2019-03-01T22:13:16.531Z,41.68
2019-03-01T22:15:47.061Z,41.98
2019-03-01T22:18:20.381Z,41.93
2019-03-01T22:20:49.151Z,41.70
2019-03-01T22:23:19.390Z,41.71
2019-03-01T22:25:49.589Z,42.94
2019-03-01T22:28:21.294Z,42.40
2019-03-01T22:30:51.434Z,42.03
2019-03-01T22:33:22.118Z,41.87
2019-03-01T22:35:52.682Z,42.10
2019-03-01T22:38:22.870Z,41.97
2019-03-01T22:40:52.872Z,42.17
2019-03-01T22:43:26.221Z,42.02
2019-03-01T22:45:54.758Z,41.78
2019-03-01T22:48:24.940Z,41.98
2019-03-01T22:50:54.834Z,42.01
2019-03-01T22:53:24.838Z,41.98
2019-03-01T22:55:55.021Z,41.92
2019-03-01T22:58:24.941Z,42.52
2019-03-01T23:01:32.697Z,43.16
2019-03-01T23:04:04.176Z,43.09
2019-03-01T23:06:34.293Z,42.72
2019-03-01T23:09:10.138Z,42.49
2019-03-01T23:11:38.759Z,44.14
2019-03-01T23:14:08.986Z,45.28
2019-03-01T23:16:39.038Z,46.90
2019-03-01T23:19:12.624Z,45.12
2019-03-01T23:21:41.386Z,45.07
2019-03-01T23:24:11.670Z,46.57
2019-03-01T23:26:41.889Z,44.83
2019-03-01T23:29:11.812Z,45.17
2019-03-01T23:31:42.079Z,45.67
2019-03-01T23:34:12.296Z,45.17
2019-03-01T23:36:42.417Z,44.90
2019-03-01T23:39:12.622Z,44.78
2019-03-01T23:41:43.517Z,44.00
2019-03-01T23:44:14.291Z,44.25
2019-03-01T23:46:44.500Z,45.13
2019-03-01T23:49:14.812Z,44.60
2019-03-01T23:51:45.412Z,44.51
2019-03-01T23:54:16.240Z,44.11
2019-03-01T23:56:46.483Z,44.10
2019-03-01T23:59:16.702Z,44.03
